createdAt,value
2022-09-10T00:00:08.207Z,96536.63
2022-09-10T00:02:36.362Z,96529.75
2022-09-10T00:05:04.125Z,96535.63
2022-09-10T00:07:32.978Z,96535.19
2022-09-10T00:10:00.561Z,96529.84
2022-09-10T00:12:28.123Z,96539.50
2022-09-10T00:14:55.873Z,96540.09
2022-09-10T00:17:24.272Z,96550.97
2022-09-10T00:19:51.802Z,96573.59
2022-09-10T00:22:19.283Z,96575.38
2022-09-10T00:24:48.139Z,96595.91
2022-09-10T00:27:15.925Z,96594.84
2022-09-10T00:29:43.696Z,96585.84
2022-09-10T00:32:11.176Z,96585.56
2022-09-10T00:34:38.747Z,96582.25
2022-09-10T00:37:06.392Z,96576.34
2022-09-10T00:39:34.012Z,96566.38
2022-09-10T00:42:02.971Z,96561.56
2022-09-10T00:44:56.905Z,96562.66
2022-09-10T00:47:28.936Z,96559.75
2022-09-10T00:50:01.906Z,96558.19
2022-09-10T00:52:29.786Z,96555.25
2022-09-10T00:54:57.616Z,96551.88
2022-09-10T00:57:29.140Z,96543.84
2022-09-10T01:00:01.280Z,96542.66
2022-09-10T01:02:29.298Z,96552.81
2022-09-10T01:04:58.894Z,96545.38
2022-09-10T01:07:29.033Z,96555.66
2022-09-10T01:09:58.918Z,96550.38
2022-09-10T01:12:46.384Z,96550.84
2022-09-10T01:15:25.449Z,96543.38
2022-09-10T01:18:11.333Z,96539.13
2022-09-10T01:21:00.757Z,96530.66
2022-09-10T01:23:57.460Z,96538.41
2022-09-10T01:26:49.382Z,96534.00
2022-09-10T01:29:24.947Z,96525.28
2022-09-10T01:31:56.737Z,96528.31
2022-09-10T01:34:30.468Z,96531.19
2022-09-10T01:37:04.965Z,96527.16
2022-09-10T01:39:34.084Z,96530.81
2022-09-10T01:42:01.905Z,96518.69
2022-09-10T01:44:48.131Z,96520.72
2022-09-10T01:47:25.513Z,96525.97
2022-09-10T01:50:10.042Z,96519.53
2022-09-10T01:52:46.588Z,96517.56
2022-09-10T01:55:27.255Z,96522.44
2022-09-10T01:58:00.100Z,96521.44
2022-09-10T02:00:29.216Z,96524.84
2022-09-10T02:03:00.707Z,96514.69
2022-09-10T02:05:30.781Z,96520.53
2022-09-10T02:08:02.340Z,96512.66
2022-09-10T02:10:30.080Z,96509.03
2022-09-10T02:12:57.699Z,96507.19
2022-09-10T02:15:28.685Z,96510.03
2022-09-10T02:17:58.888Z,96521.56
2022-09-10T02:20:26.661Z,96505.81
2022-09-10T02:22:59.162Z,96520.13
2022-09-10T02:25:26.948Z,96512.59
2022-09-10T02:27:54.963Z,96517.50
2022-09-10T02:30:24.796Z,96521.38
2022-09-10T02:32:52.323Z,96516.31
2022-09-10T02:35:21.154Z,96531.72
2022-09-10T02:37:50.577Z,96536.56
2022-09-10T02:40:19.498Z,96528.81
2022-09-10T02:42:47.503Z,96514.44
2022-09-10T02:45:15.328Z,96517.06
2022-09-10T02:47:43.088Z,96513.44
2022-09-10T02:50:11.672Z,96509.75
2022-09-10T02:52:40.555Z,96515.03
2022-09-10T02:55:08.843Z,96513.44
2022-09-10T02:57:36.358Z,96522.53
2022-09-10T03:00:04.806Z,96546.56
2022-09-10T03:02:32.369Z,96553.19
2022-09-10T03:05:00.328Z,96530.31
2022-09-10T03:07:27.844Z,96522.41
2022-09-10T03:09:56.765Z,96534.78
2022-09-10T03:12:24.296Z,96529.34
2022-09-10T03:14:52.030Z,96529.19
2022-09-10T03:17:19.541Z,96527.00
2022-09-10T03:19:47.090Z,96527.44
2022-09-10T03:22:14.618Z,96522.59
2022-09-10T03:24:43.123Z,96535.72
2022-09-10T03:27:13.979Z,96530.47
2022-09-10T03:29:41.465Z,96531.66
2022-09-10T03:32:09.115Z,96514.88
2022-09-10T03:34:36.635Z,96509.44
2022-09-10T03:37:04.346Z,96509.44
2022-09-10T03:39:32.061Z,96518.56
2022-09-10T03:41:59.676Z,96521.44
2022-09-10T03:44:28.463Z,96525.69
2022-09-10T03:46:55.963Z,96530.16
2022-09-10T03:49:23.611Z,96529.72
2022-09-10T03:51:51.157Z,96530.69
2022-09-10T03:54:19.266Z,96530.06
2022-09-10T03:56:46.869Z,96521.13
2022-09-10T03:59:14.882Z,96503.19
2022-09-10T04:01:43.761Z,96519.59
2022-09-10T04:04:11.300Z,96516.38
2022-09-10T04:06:40.198Z,96513.16
2022-09-10T04:09:07.884Z,96516.59
2022-09-10T04:11:35.922Z,96512.13
2022-09-10T04:14:03.442Z,96509.72
2022-09-10T04:16:32.524Z,96515.19
2022-09-10T04:19:01.440Z,96512.19
2022-09-10T04:21:28.981Z,96503.34
2022-09-10T04:23:56.992Z,96502.16
2022-09-10T04:26:24.767Z,96507.03
2022-09-10T04:28:52.553Z,96501.16
2022-09-10T04:31:20.477Z,96512.13
2022-09-10T04:33:49.037Z,96508.91
2022-09-10T04:36:17.980Z,96505.69
2022-09-10T04:38:45.563Z,96495.16
2022-09-10T04:41:15.463Z,96498.38
2022-09-10T04:43:43.614Z,96501.59
2022-09-10T04:46:11.368Z,96499.38
2022-09-10T04:48:39.014Z,96504.84
2022-09-10T04:51:16.218Z,96510.94
2022-09-10T04:53:47.018Z,96514.41
2022-09-10T04:56:14.942Z,96518.06
2022-09-10T04:58:44.191Z,96508.75
2022-09-10T05:01:12.048Z,96512.31
2022-09-10T05:03:39.755Z,96509.69
2022-09-10T05:06:07.575Z,96515.38
2022-09-10T05:08:36.560Z,96516.03
2022-09-10T05:11:05.527Z,96521.69
2022-09-10T05:13:33.111Z,96520.88
2022-09-10T05:16:01.626Z,96523.31
2022-09-10T05:18:29.164Z,96517.63
2022-09-10T05:20:56.628Z,96520.25
2022-09-10T05:23:24.204Z,96523.47
2022-09-10T05:25:51.736Z,96525.31
2022-09-10T05:28:21.916Z,96526.53
2022-09-10T05:30:51.689Z,96525.50
2022-09-10T05:33:19.596Z,96531.78
2022-09-10T05:35:51.596Z,96533.81
2022-09-10T05:38:19.760Z,96536.44
2022-09-10T05:40:48.126Z,96533.59
2022-09-10T05:43:15.608Z,96532.78
2022-09-10T06:06:35.830Z,96525.41
2022-09-10T06:09:03.478Z,96541.97
2022-09-10T06:11:31.490Z,96534.09
2022-09-10T06:13:59.121Z,96537.56
2022-09-10T06:16:26.858Z,96534.69
2022-09-10T06:48:40.515Z,96564.78
2022-09-10T06:51:13.097Z,96559.88
2022-09-10T07:00:33.586Z,96561.50
2022-09-10T07:03:01.200Z,96573.84
2022-09-10T07:05:33.384Z,96572.44
2022-09-10T07:08:02.098Z,96569.16
2022-09-10T07:10:31.494Z,96576.75
2022-09-10T07:30:10.118Z,96579.75
2022-09-10T07:54:26.310Z,96606.31
2022-09-10T08:40:44.841Z,96649.94
2022-09-10T08:43:15.439Z,96640.53
2022-09-10T08:45:49.403Z,96644.94
2022-09-10T08:48:20.237Z,96647.34
2022-09-10T08:50:54.390Z,96642.41
2022-09-10T08:53:27.769Z,96653.09
2022-09-10T08:56:02.918Z,96656.53
2022-09-10T08:58:41.052Z,96641.06
2022-09-10T09:01:15.342Z,96650.19
2022-09-10T09:03:46.049Z,96652.88
2022-09-10T09:06:25.196Z,96653.00
2022-09-10T09:08:54.296Z,96650.09
2022-09-10T09:11:34.357Z,96654.94
2022-09-10T09:14:13.950Z,96653.78
2022-09-10T09:16:59.886Z,96653.41
2022-09-10T09:19:33.975Z,96664.03
2022-09-10T09:22:08.074Z,96661.69
2022-09-10T09:24:48.448Z,96666.19
2022-09-10T09:27:20.151Z,96669.19
2022-09-10T09:29:53.102Z,96660.69
2022-09-10T09:32:22.630Z,96663.78
2022-09-10T09:34:54.396Z,96667.56
2022-09-10T09:37:25.675Z,96660.97
2022-09-10T09:40:06.403Z,96645.25
2022-09-10T09:42:43.046Z,96648.31
2022-09-10T09:45:23.326Z,96639.34
2022-09-10T09:47:51.482Z,96644.94
2022-09-10T09:50:19.423Z,96647.63
2022-09-10T09:52:47.809Z,96643.06
2022-09-10T09:55:27.578Z,96644.88
2022-09-10T09:58:33.771Z,96652.50
2022-09-10T10:01:20.716Z,96647.38
2022-09-10T10:03:58.752Z,96641.31
2022-09-10T10:06:29.496Z,96643.00
2022-09-10T10:09:01.007Z,96638.69
2022-09-10T10:11:57.793Z,96636.28
2022-09-10T10:14:36.493Z,96632.22
2022-09-10T10:17:21.694Z,96632.03
2022-09-10T10:19:59.672Z,96619.28
2022-09-10T10:22:30.062Z,96621.63
2022-09-10T10:24:57.678Z,96628.03
2022-09-10T10:27:32.793Z,96618.63
2022-09-10T10:30:06.073Z,96615.94
2022-09-10T10:32:41.650Z,96624.34
2022-09-10T10:35:35.916Z,96619.94
2022-09-10T10:38:26.266Z,96622.00
2022-09-10T10:41:09.625Z,96611.78
2022-09-10T10:43:48.286Z,96599.59
2022-09-10T10:46:23.380Z,96608.44
2022-09-10T10:49:03.993Z,96598.28
2022-09-10T10:51:42.965Z,96601.72
2022-09-10T10:54:28.486Z,96596.00
2022-09-10T10:57:06.413Z,96603.66
2022-09-10T10:59:46.364Z,96593.75
2022-09-10T11:02:21.687Z,96591.47
2022-09-10T11:04:51.450Z,96589.63
2022-09-10T11:07:23.353Z,96596.41
2022-09-10T11:09:58.514Z,96598.72
2022-09-10T11:12:31.966Z,96606.94
2022-09-10T11:15:06.048Z,96611.91
2022-09-10T11:17:39.354Z,96621.91
2022-09-10T11:20:28.497Z,96637.72
2022-09-10T11:23:05.363Z,96642.38
2022-09-10T11:25:39.962Z,96636.19
2022-09-10T11:28:14.583Z,96632.69
2022-09-10T11:30:58.016Z,96628.16
2022-09-10T11:33:34.725Z,96634.09
2022-09-10T11:36:12.190Z,96630.31
2022-09-10T11:38:50.484Z,96631.31
2022-09-10T11:41:22.941Z,96634.47
2022-09-10T11:43:58.174Z,96635.47
2022-09-10T11:46:32.268Z,96638.03
2022-09-10T11:49:06.209Z,96647.03
2022-09-10T11:51:36.999Z,96639.66
2022-09-10T11:54:07.274Z,96655.53
2022-09-10T11:56:59.660Z,96648.63
2022-09-10T11:59:54.195Z,96648.53
2022-09-10T12:02:52.173Z,96639.91
2022-09-10T12:05:27.698Z,96641.44
2022-09-10T12:08:04.867Z,96643.25
2022-09-10T12:10:36.527Z,96639.25
2022-09-10T12:13:09.497Z,96639.72
2022-09-10T12:15:38.704Z,96629.03
2022-09-10T12:18:14.228Z,96618.25
2022-09-10T12:20:49.646Z,96613.94
2022-09-10T12:23:19.278Z,96614.91
2022-09-10T12:25:57.800Z,96607.16
2022-09-10T12:29:04.213Z,96608.78
2022-09-10T12:32:05.164Z,96602.66
2022-09-10T12:34:32.880Z,96601.72
2022-09-10T12:37:28.084Z,96589.22
2022-09-10T12:40:33.003Z,96590.22
2022-09-10T12:43:21.464Z,96588.06
2022-09-10T12:46:02.320Z,96585.09
2022-09-10T12:48:30.567Z,96579.63
2022-09-10T12:51:00.506Z,96591.34
2022-09-10T12:54:07.926Z,96587.63
2022-09-10T12:57:17.432Z,96583.97
2022-09-10T13:00:13.129Z,96588.84
2022-09-10T13:02:49.021Z,96578.13
2022-09-10T13:05:25.627Z,96574.75
2022-09-10T13:08:21.349Z,96568.66
2022-09-10T13:11:16.512Z,96568.47
2022-09-10T13:13:51.898Z,96571.84
2022-09-10T13:16:38.227Z,96571.97
2022-09-10T13:19:42.965Z,96576.06
2022-09-10T13:22:55.205Z,96573.41
2022-09-10T13:25:34.988Z,96572.06
2022-09-10T13:28:12.443Z,96574.06
2022-09-10T13:30:41.285Z,96567.69
2022-09-10T13:33:17.702Z,96568.91
2022-09-10T13:36:05.551Z,96563.06
2022-09-10T13:38:54.486Z,96563.31
2022-09-10T13:41:39.489Z,96561.72
2022-09-10T13:44:26.727Z,96560.13
2022-09-10T13:46:57.252Z,96555.94
2022-09-10T13:49:32.853Z,96559.72
2022-09-10T13:52:04.616Z,96557.69
2022-09-10T13:54:35.526Z,96561.75
2022-09-10T13:57:11.329Z,96548.50
2022-09-10T13:59:42.549Z,96558.06
2022-09-10T14:02:10.211Z,96558.28
2022-09-10T14:04:43.121Z,96563.59
2022-09-10T14:07:16.182Z,96557.00
2022-09-10T14:09:46.224Z,96559.97
2022-09-10T14:12:16.096Z,96552.50
2022-09-10T14:14:48.795Z,96559.59
2022-09-10T14:17:19.348Z,96561.09
2022-09-10T14:19:51.644Z,96557.06
2022-09-10T14:22:22.346Z,96563.97
2022-09-10T14:24:53.965Z,96558.81
2022-09-10T14:27:25.587Z,96561.72
2022-09-10T14:29:56.447Z,96559.06
2022-09-10T14:32:29.210Z,96546.88
2022-09-10T14:34:57.337Z,96551.06
2022-09-10T14:37:32.160Z,96544.63
2022-09-10T14:40:05.749Z,96540.31
2022-09-10T14:42:35.753Z,96545.06
2022-09-10T14:45:05.884Z,96538.16
2022-09-10T14:47:37.060Z,96543.94
2022-09-10T14:50:28.207Z,96533.34
2022-09-10T15:18:50.751Z,96539.50
2022-09-10T15:21:55.692Z,96538.63
2022-09-10T15:25:16.375Z,96544.63
2022-09-10T15:27:57.227Z,96543.06
2022-09-10T21:43:17.603Z,96702.22
2022-09-10T22:50:14.703Z,96720.09
